KGRK/GRK METAR and TAF weather

Enter ICAO airport designator
Station Type Date Time Source
KGRK METAR 2022/06/28 14:56 UTC NOAA

KGRK 281456Z AUTO 05005KT 9SM OVC030 25/21 A3017 RMK AO2 SLP207 T02480207 52017


Station Type Date Time Source
KGRK Decoded METAR 2022/06/28 14:56 UTC NOAA

Fort Hood, Robert Gray AAF Ft Hood, TX, United States (KGRK) 31-04N 097-49W
Jun 28, 2022 - 10:56 AM EDT / 2022.06.28 1456 UTC
Wind: from the NE (050 degrees) at 6 MPH (5 KT):0
Visibility: 9 mile(s):0
Sky conditions: overcast
Temperature: 76.6 F (24.8 C)
Dew Point: 69.3 F (20.7 C)
Relative Humidity: 77%
Pressure (altimeter): 30.17 in. Hg (1021 hPa)
Pressure tendency: 0.05 inches (1.7 hPa) higher than three hours ago
ob: KGRK 281456Z AUTO 05005KT 9SM OVC030 25/21 A3017 RMK AO2 SLP207 T02480207 52017
cycle: 15

Station Type Date Time Source
KGRK TAF 2022/06/28 08:33 UTC NOAA

TAF KGRK 280800Z 2808/2914 33009KT 9999 BKN100 QNH3010INS
TEMPO 2808/2810 8000 -TSRA BKN050CB
BECMG 2817/2818 01009KT 9999 BKN050 QNH3009INS TX31/2821Z TN22/2811Z

Example: see airport list